Hills, Minnesota
Current Conditions -  °F | °C
As of 1:14 AM on Saturday 27 Dec 2014 (Local Time) from KLYV Reporting Station
Light Snow Light Snow  
Wind Chill: 13°   Ceiling: 900
Heat Index: 25°   Visibility: 1.5mi
Dew Point: 21°   Wind: 14mph
Humidity: 86%   Direction: 350°N
Pressure: 30.07"   Gusts: 18mph
Location:  43.53°N, 96.36°W
Report Text: KLYV 270714Z AUTO 35012G16KT 1 1/2SM -SN OVC009 M04/M06 A3007 RMK AO2
Loading
Personal Weather Stations






























Interactive Weather Map New forecast layout! Learn more

10-Day Weather Forecast

Advertisements
Track Severe Weather on mobile